sensor_id;sensor_type;location;lat;lon;timestamp;P1;durP1;ratioP1;P2;durP2;ratioP2
26106;SDS011;13866;50.748;12.630;2023-04-03T00:00:25;4.90;;;3.20;;
26106;SDS011;13866;50.748;12.630;2023-04-03T00:02:51;8.70;;;3.77;;
26106;SDS011;13866;50.748;12.630;2023-04-03T00:05:16;7.40;;;3.80;;
26106;SDS011;13866;50.748;12.630;2023-04-03T00:07:42;5.33;;;4.07;;
26106;SDS011;13866;50.748;12.630;2023-04-03T00:10:07;3.40;;;3.30;;
26106;SDS011;13866;50.748;12.630;2023-04-03T00:12:33;4.87;;;2.83;;
26106;SDS011;13866;50.748;12.630;2023-04-03T00:14:59;4.67;;;3.00;;
26106;SDS011;13866;50.748;12.630;2023-04-03T00:17:24;2.73;;;2.73;;
26106;SDS011;13866;50.748;12.630;2023-04-03T00:19:50;3.50;;;3.40;;
26106;SDS011;13866;50.748;12.630;2023-04-03T00:22:15;2.53;;;2.33;;
26106;SDS011;13866;50.748;12.630;2023-04-03T00:24:41;3.30;;;3.03;;
26106;SDS011;13866;50.748;12.630;2023-04-03T00:27:07;3.10;;;2.27;;
26106;SDS011;13866;50.748;12.630;2023-04-03T00:29:32;7.77;;;3.50;;
26106;SDS011;13866;50.748;12.630;2023-04-03T00:31:57;4.73;;;2.63;;
26106;SDS011;13866;50.748;12.630;2023-04-03T00:34:23;4.53;;;3.37;;
26106;SDS011;13866;50.748;12.630;2023-04-03T00:36:48;2.63;;;2.43;;
26106;SDS011;13866;50.748;12.630;2023-04-03T00:39:14;4.60;;;4.37;;
26106;SDS011;13866;50.748;12.630;2023-04-03T00:41:40;2.80;;;2.70;;
26106;SDS011;13866;50.748;12.630;2023-04-03T00:44:21;3.73;;;3.37;;
26106;SDS011;13866;50.748;12.630;2023-04-03T00:46:53;2.33;;;2.30;;
26106;SDS011;13866;50.748;12.630;2023-04-03T00:49:19;3.80;;;2.90;;
26106;SDS011;13866;50.748;12.630;2023-04-03T00:51:45;10.73;;;3.60;;
26106;SDS011;13866;50.748;12.630;2023-04-03T00:54:10;3.30;;;3.00;;
26106;SDS011;13866;50.748;12.630;2023-04-03T00:56:36;3.50;;;3.30;;
26106;SDS011;13866;50.748;12.630;2023-04-03T00:59:06;2.47;;;2.20;;
26106;SDS011;13866;50.748;12.630;2023-04-03T01:01:47;2.97;;;2.77;;
26106;SDS011;13866;50.748;12.630;2023-04-03T01:07:04;3.20;;;2.90;;
26106;SDS011;13866;50.748;12.630;2023-04-03T01:09:33;3.63;;;2.83;;
26106;SDS011;13866;50.748;12.630;2023-04-03T01:14:46;3.22;;;3.00;;
26106;SDS011;13866;50.748;12.630;2023-04-03T01:17:24;5.88;;;3.63;;
26106;SDS011;13866;50.748;12.630;2023-04-03T01:22:42;3.20;;;3.00;;
26106;SDS011;13866;50.748;12.630;2023-04-03T01:25:18;3.53;;;3.43;;
26106;SDS011;13866;50.748;12.630;2023-04-03T01:27:44;2.87;;;2.47;;
26106;SDS011;13866;50.748;12.630;2023-04-03T01:30:09;2.93;;;2.63;;
26106;SDS011;13866;50.748;12.630;2023-04-03T01:32:35;3.27;;;3.07;;
26106;SDS011;13866;50.748;12.630;2023-04-03T01:35:01;4.47;;;4.17;;
26106;SDS011;13866;50.748;12.630;2023-04-03T01:37:27;2.80;;;2.70;;
26106;SDS011;13866;50.748;12.630;2023-04-03T01:39:52;3.00;;;2.90;;
26106;SDS011;13866;50.748;12.630;2023-04-03T01:42:17;20.97;;;3.53;;
26106;SDS011;13866;50.748;12.630;2023-04-03T01:44:43;2.67;;;2.67;;
26106;SDS011;13866;50.748;12.630;2023-04-03T01:47:09;4.30;;;4.10;;
26106;SDS011;13866;50.748;12.630;2023-04-03T01:49:35;3.03;;;3.03;;
26106;SDS011;13866;50.748;12.630;2023-04-03T01:52:00;3.27;;;3.07;;
26106;SDS011;13866;50.748;12.630;2023-04-03T01:54:26;3.30;;;3.10;;
26106;SDS011;13866;50.748;12.630;2023-04-03T01:56:51;3.20;;;2.93;;
26106;SDS011;13866;50.748;12.630;2023-04-03T01:59:17;3.53;;;3.30;;
26106;SDS011;13866;50.748;12.630;2023-04-03T02:01:44;3.23;;;3.03;;
26106;SDS011;13866;50.748;12.630;2023-04-03T02:04:10;3.70;;;3.50;;
26106;SDS011;13866;50.748;12.630;2023-04-03T02:06:36;5.80;;;3.20;;
26106;SDS011;13866;50.748;12.630;2023-04-03T02:09:02;3.87;;;3.73;;
26106;SDS011;13866;50.748;12.630;2023-04-03T02:11:28;4.40;;;3.50;;
26106;SDS011;13866;50.748;12.630;2023-04-03T02:13:53;5.10;;;3.03;;
26106;SDS011;13866;50.748;12.630;2023-04-03T02:16:18;3.00;;;2.90;;
26106;SDS011;13866;50.748;12.630;2023-04-03T02:18:44;7.00;;;3.20;;
26106;SDS011;13866;50.748;12.630;2023-04-03T02:21:09;4.17;;;3.17;;
26106;SDS011;13866;50.748;12.630;2023-04-03T02:23:35;5.53;;;2.90;;
26106;SDS011;13866;50.748;12.630;2023-04-03T02:26:02;3.40;;;3.10;;
26106;SDS011;13866;50.748;12.630;2023-04-03T02:28:30;3.97;;;3.37;;
26106;SDS011;13866;50.748;12.630;2023-04-03T02:30:55;4.97;;;2.80;;
26106;SDS011;13866;50.748;12.630;2023-04-03T02:33:21;3.70;;;2.77;;
26106;SDS011;13866;50.748;12.630;2023-04-03T02:35:46;3.27;;;2.50;;
26106;SDS011;13866;50.748;12.630;2023-04-03T02:38:17;3.22;;;3.03;;
26106;SDS011;13866;50.748;12.630;2023-04-03T02:40:43;3.80;;;3.03;;
26106;SDS011;13866;50.748;12.630;2023-04-03T02:43:08;3.20;;;3.10;;
26106;SDS011;13866;50.748;12.630;2023-04-03T02:45:34;4.10;;;2.70;;
26106;SDS011;13866;50.748;12.630;2023-04-03T02:48:00;4.53;;;2.97;;
26106;SDS011;13866;50.748;12.630;2023-04-03T02:50:25;2.80;;;2.70;;
26106;SDS011;13866;50.748;12.630;2023-04-03T02:52:51;5.63;;;3.00;;
26106;SDS011;13866;50.748;12.630;2023-04-03T02:55:16;3.07;;;2.97;;
26106;SDS011;13866;50.748;12.630;2023-04-03T02:57:42;2.97;;;2.87;;
26106;SDS011;13866;50.748;12.630;2023-04-03T03:00:08;3.63;;;3.33;;
26106;SDS011;13866;50.748;12.630;2023-04-03T03:02:34;3.05;;;2.95;;
26106;SDS011;13866;50.748;12.630;2023-04-03T03:05:00;3.83;;;3.53;;
26106;SDS011;13866;50.748;12.630;2023-04-03T03:07:25;4.77;;;2.83;;
26106;SDS011;13866;50.748;12.630;2023-04-03T03:09:51;2.70;;;2.70;;
26106;SDS011;13866;50.748;12.630;2023-04-03T03:12:17;4.30;;;2.77;;
26106;SDS011;13866;50.748;12.630;2023-04-03T03:14:46;2.72;;;2.58;;
26106;SDS011;13866;50.748;12.630;2023-04-03T03:17:13;5.88;;;4.07;;
26106;SDS011;13866;50.748;12.630;2023-04-03T03:19:38;3.17;;;2.97;;
26106;SDS011;13866;50.748;12.630;2023-04-03T03:22:04;4.63;;;3.00;;
26106;SDS011;13866;50.748;12.630;2023-04-03T03:24:29;6.50;;;3.60;;
26106;SDS011;13866;50.748;12.630;2023-04-03T03:26:55;4.20;;;3.30;;
26106;SDS011;13866;50.748;12.630;2023-04-03T03:29:20;3.90;;;3.50;;
26106;SDS011;13866;50.748;12.630;2023-04-03T03:31:46;4.23;;;3.80;;
26106;SDS011;13866;50.748;12.630;2023-04-03T03:34:12;3.80;;;3.60;;
26106;SDS011;13866;50.748;12.630;2023-04-03T03:36:37;5.53;;;3.63;;
26106;SDS011;13866;50.748;12.630;2023-04-03T03:39:03;8.47;;;3.80;;
26106;SDS011;13866;50.748;12.630;2023-04-03T03:41:29;3.23;;;3.20;;
26106;SDS011;13866;50.748;12.630;2023-04-03T03:43:54;3.53;;;3.27;;
26106;SDS011;13866;50.748;12.630;2023-04-03T03:46:20;4.00;;;2.83;;
26106;SDS011;13866;50.748;12.630;2023-04-03T03:48:45;2.80;;;2.70;;
26106;SDS011;13866;50.748;12.630;2023-04-03T03:51:11;6.30;;;3.30;;
26106;SDS011;13866;50.748;12.630;2023-04-03T03:53:36;8.13;;;2.90;;
26106;SDS011;13866;50.748;12.630;2023-04-03T03:56:02;3.80;;;3.60;;
26106;SDS011;13866;50.748;12.630;2023-04-03T03:58:27;5.10;;;4.63;;
26106;SDS011;13866;50.748;12.630;2023-04-03T04:00:53;5.00;;;4.60;;
26106;SDS011;13866;50.748;12.630;2023-04-03T04:03:18;10.10;;;6.57;;
26106;SDS011;13866;50.748;12.630;2023-04-03T04:05:44;4.27;;;3.67;;
26106;SDS011;13866;50.748;12.630;2023-04-03T04:08:09;6.80;;;4.20;;
26106;SDS011;13866;50.748;12.630;2023-04-03T04:10:35;4.07;;;3.53;;
26106;SDS011;13866;50.748;12.630;2023-04-03T04:13:02;3.63;;;3.47;;
26106;SDS011;13866;50.748;12.630;2023-04-03T04:15:28;3.43;;;3.33;;
26106;SDS011;13866;50.748;12.630;2023-04-03T04:17:53;4.20;;;3.97;;
26106;SDS011;13866;50.748;12.630;2023-04-03T04:20:19;8.67;;;3.87;;
26106;SDS011;13866;50.748;12.630;2023-04-03T04:22:45;4.10;;;3.07;;
26106;SDS011;13866;50.748;12.630;2023-04-03T04:25:10;3.77;;;3.43;;
26106;SDS011;13866;50.748;12.630;2023-04-03T04:27:36;3.30;;;3.00;;
26106;SDS011;13866;50.748;12.630;2023-04-03T04:30:02;3.93;;;3.83;;
26106;SDS011;13866;50.748;12.630;2023-04-03T04:32:28;4.53;;;3.67;;
26106;SDS011;13866;50.748;12.630;2023-04-03T04:34:54;3.47;;;3.47;;
26106;SDS011;13866;50.748;12.630;2023-04-03T04:37:19;10.43;;;4.10;;
26106;SDS011;13866;50.748;12.630;2023-04-03T04:39:45;4.33;;;3.77;;
26106;SDS011;13866;50.748;12.630;2023-04-03T04:42:10;3.60;;;3.40;;
26106;SDS011;13866;50.748;12.630;2023-04-03T04:44:37;4.05;;;4.05;;
26106;SDS011;13866;50.748;12.630;2023-04-03T04:47:03;3.70;;;3.50;;
26106;SDS011;13866;50.748;12.630;2023-04-03T04:49:29;4.17;;;3.73;;
26106;SDS011;13866;50.748;12.630;2023-04-03T04:51:55;4.80;;;4.70;;
26106;SDS011;13866;50.748;12.630;2023-04-03T04:54:20;4.53;;;3.07;;
26106;SDS011;13866;50.748;12.630;2023-04-03T04:56:46;6.47;;;4.23;;
26106;SDS011;13866;50.748;12.630;2023-04-03T04:59:11;10.33;;;8.00;;
26106;SDS011;13866;50.748;12.630;2023-04-03T05:01:37;16.83;;;6.27;;
26106;SDS011;13866;50.748;12.630;2023-04-03T05:04:02;8.87;;;6.00;;
26106;SDS011;13866;50.748;12.630;2023-04-03T05:06:28;3.57;;;3.37;;
26106;SDS011;13866;50.748;12.630;2023-04-03T05:08:55;4.65;;;4.25;;
26106;SDS011;13866;50.748;12.630;2023-04-03T05:11:20;7.20;;;5.23;;
26106;SDS011;13866;50.748;12.630;2023-04-03T05:13:46;4.33;;;4.23;;
26106;SDS011;13866;50.748;12.630;2023-04-03T05:16:11;5.33;;;3.80;;
26106;SDS011;13866;50.748;12.630;2023-04-03T05:18:37;6.83;;;3.77;;
26106;SDS011;13866;50.748;12.630;2023-04-03T05:21:02;3.60;;;3.37;;
26106;SDS011;13866;50.748;12.630;2023-04-03T05:23:28;9.63;;;3.60;;
26106;SDS011;13866;50.748;12.630;2023-04-03T05:25:53;2.80;;;2.70;;
26106;SDS011;13866;50.748;12.630;2023-04-03T05:28:19;3.70;;;3.60;;
26106;SDS011;13866;50.748;12.630;2023-04-03T05:30:45;4.13;;;3.73;;
26106;SDS011;13866;50.748;12.630;2023-04-03T05:33:10;5.60;;;5.20;;
26106;SDS011;13866;50.748;12.630;2023-04-03T05:35:36;4.70;;;4.43;;
26106;SDS011;13866;50.748;12.630;2023-04-03T05:38:05;3.75;;;3.60;;
26106;SDS011;13866;50.748;12.630;2023-04-03T05:40:30;5.53;;;5.03;;
26106;SDS011;13866;50.748;12.630;2023-04-03T05:42:56;5.17;;;4.27;;
26106;SDS011;13866;50.748;12.630;2023-04-03T05:45:22;3.20;;;3.10;;
26106;SDS011;13866;50.748;12.630;2023-04-03T05:47:47;5.63;;;3.87;;
26106;SDS011;13866;50.748;12.630;2023-04-03T05:50:13;9.33;;;5.63;;
26106;SDS011;13866;50.748;12.630;2023-04-03T05:52:40;4.73;;;4.63;;
26106;SDS011;13866;50.748;12.630;2023-04-03T05:55:08;4.03;;;3.75;;
26106;SDS011;13866;50.748;12.630;2023-04-03T05:57:34;4.17;;;3.87;;
26106;SDS011;13866;50.748;12.630;2023-04-03T06:00:00;5.90;;;4.50;;
26106;SDS011;13866;50.748;12.630;2023-04-03T06:02:25;6.03;;;5.47;;
26106;SDS011;13866;50.748;12.630;2023-04-03T06:04:52;4.18;;;4.00;;
26106;SDS011;13866;50.748;12.630;2023-04-03T06:07:18;5.23;;;5.03;;
26106;SDS011;13866;50.748;12.630;2023-04-03T06:09:47;4.95;;;3.92;;
26106;SDS011;13866;50.748;12.630;2023-04-03T06:12:13;4.50;;;4.47;;
26106;SDS011;13866;50.748;12.630;2023-04-03T06:14:39;4.70;;;4.43;;
26106;SDS011;13866;50.748;12.630;2023-04-03T06:17:05;6.97;;;5.50;;
26106;SDS011;13866;50.748;12.630;2023-04-03T06:19:31;7.30;;;4.80;;
26106;SDS011;13866;50.748;12.630;2023-04-03T06:21:56;5.70;;;4.30;;
26106;SDS011;13866;50.748;12.630;2023-04-03T06:24:22;5.47;;;5.07;;
26106;SDS011;13866;50.748;12.630;2023-04-03T06:26:49;8.40;;;5.15;;
26106;SDS011;13866;50.748;12.630;2023-04-03T06:29:16;4.78;;;4.57;;
26106;SDS011;13866;50.748;12.630;2023-04-03T06:31:42;5.83;;;5.30;;
26106;SDS011;13866;50.748;12.630;2023-04-03T06:34:07;6.60;;;5.37;;
26106;SDS011;13866;50.748;12.630;2023-04-03T06:36:33;9.33;;;6.77;;
26106;SDS011;13866;50.748;12.630;2023-04-03T06:38:59;4.68;;;4.57;;
26106;SDS011;13866;50.748;12.630;2023-04-03T06:41:26;5.45;;;5.15;;
26106;SDS011;13866;50.748;12.630;2023-04-03T06:43:51;5.70;;;5.40;;
26106;SDS011;13866;50.748;12.630;2023-04-03T06:46:18;8.00;;;4.83;;
26106;SDS011;13866;50.748;12.630;2023-04-03T06:48:46;5.60;;;5.40;;
26106;SDS011;13866;50.748;12.630;2023-04-03T06:51:18;6.53;;;5.13;;
26106;SDS011;13866;50.748;12.630;2023-04-03T06:53:52;5.63;;;5.40;;
26106;SDS011;13866;50.748;12.630;2023-04-03T06:56:19;7.38;;;5.07;;
26106;SDS011;13866;50.748;12.630;2023-04-03T06:58:45;5.30;;;4.80;;
26106;SDS011;13866;50.748;12.630;2023-04-03T07:01:11;5.00;;;4.67;;
26106;SDS011;13866;50.748;12.630;2023-04-03T07:03:38;5.30;;;4.90;;
26106;SDS011;13866;50.748;12.630;2023-04-03T07:06:04;6.43;;;5.83;;
26106;SDS011;13866;50.748;12.630;2023-04-03T07:08:30;5.82;;;5.28;;
26106;SDS011;13866;50.748;12.630;2023-04-03T07:10:56;5.87;;;5.20;;
26106;SDS011;13866;50.748;12.630;2023-04-03T07:13:21;5.90;;;5.60;;
26106;SDS011;13866;50.748;12.630;2023-04-03T07:15:47;3.97;;;3.77;;
26106;SDS011;13866;50.748;12.630;2023-04-03T07:18:13;6.33;;;4.73;;
26106;SDS011;13866;50.748;12.630;2023-04-03T07:20:39;4.40;;;4.00;;
26106;SDS011;13866;50.748;12.630;2023-04-03T07:23:05;4.97;;;4.68;;
26106;SDS011;13866;50.748;12.630;2023-04-03T07:25:30;9.23;;;5.63;;
26106;SDS011;13866;50.748;12.630;2023-04-03T07:27:56;8.60;;;4.63;;
26106;SDS011;13866;50.748;12.630;2023-04-03T07:30:22;4.40;;;4.20;;
26106;SDS011;13866;50.748;12.630;2023-04-03T07:32:48;4.63;;;4.33;;
26106;SDS011;13866;50.748;12.630;2023-04-03T07:35:13;4.33;;;3.73;;
26106;SDS011;13866;50.748;12.630;2023-04-03T07:37:40;5.30;;;4.20;;
26106;SDS011;13866;50.748;12.630;2023-04-03T07:40:06;4.03;;;3.90;;
26106;SDS011;13866;50.748;12.630;2023-04-03T07:42:31;8.03;;;4.30;;
26106;SDS011;13866;50.748;12.630;2023-04-03T07:44:57;8.60;;;4.37;;
26106;SDS011;13866;50.748;12.630;2023-04-03T07:47:22;4.00;;;3.67;;
26106;SDS011;13866;50.748;12.630;2023-04-03T07:49:48;4.47;;;4.27;;
26106;SDS011;13866;50.748;12.630;2023-04-03T07:52:13;5.13;;;4.20;;
26106;SDS011;13866;50.748;12.630;2023-04-03T07:54:40;5.20;;;4.80;;
26106;SDS011;13866;50.748;12.630;2023-04-03T07:57:06;5.22;;;5.00;;
26106;SDS011;13866;50.748;12.630;2023-04-03T07:59:32;8.80;;;6.87;;
26106;SDS011;13866;50.748;12.630;2023-04-03T08:01:57;5.47;;;4.93;;
26106;SDS011;13866;50.748;12.630;2023-04-03T08:04:23;5.30;;;5.10;;
26106;SDS011;13866;50.748;12.630;2023-04-03T08:06:48;4.50;;;4.23;;
26106;SDS011;13866;50.748;12.630;2023-04-03T08:09:15;4.17;;;3.87;;
26106;SDS011;13866;50.748;12.630;2023-04-03T08:11:40;4.68;;;4.47;;
26106;SDS011;13866;50.748;12.630;2023-04-03T08:14:06;4.93;;;4.73;;
26106;SDS011;13866;50.748;12.630;2023-04-03T08:16:32;3.83;;;3.63;;
26106;SDS011;13866;50.748;12.630;2023-04-03T08:18:57;4.90;;;4.60;;
26106;SDS011;13866;50.748;12.630;2023-04-03T08:21:23;4.50;;;4.20;;
26106;SDS011;13866;50.748;12.630;2023-04-03T08:23:49;4.73;;;4.27;;
26106;SDS011;13866;50.748;12.630;2023-04-03T08:26:18;4.50;;;4.15;;
26106;SDS011;13866;50.748;12.630;2023-04-03T08:28:46;4.00;;;3.85;;
26106;SDS011;13866;50.748;12.630;2023-04-03T08:31:13;4.32;;;4.03;;
26106;SDS011;13866;50.748;12.630;2023-04-03T08:33:40;4.00;;;3.85;;
26106;SDS011;13866;50.748;12.630;2023-04-03T08:36:07;3.37;;;3.17;;
26106;SDS011;13866;50.748;12.630;2023-04-03T08:38:40;4.30;;;4.10;;
26106;SDS011;13866;50.748;12.630;2023-04-03T08:41:10;4.20;;;3.93;;
26106;SDS011;13866;50.748;12.630;2023-04-03T08:43:52;4.13;;;3.80;;
26106;SDS011;13866;50.748;12.630;2023-04-03T08:46:22;5.60;;;4.03;;
26106;SDS011;13866;50.748;12.630;2023-04-03T08:48:59;4.80;;;4.50;;
26106;SDS011;13866;50.748;12.630;2023-04-03T08:51:25;3.60;;;3.40;;
26106;SDS011;13866;50.748;12.630;2023-04-03T08:56:25;7.93;;;3.30;;
26106;SDS011;13866;50.748;12.630;2023-04-03T08:59:04;4.43;;;4.13;;
26106;SDS011;13866;50.748;12.630;2023-04-03T09:01:36;4.60;;;4.30;;
26106;SDS011;13866;50.748;12.630;2023-04-03T09:04:13;3.87;;;3.67;;
26106;SDS011;13866;50.748;12.630;2023-04-03T09:06:40;3.80;;;3.40;;
26106;SDS011;13866;50.748;12.630;2023-04-03T09:18:04;4.33;;;3.23;;
26106;SDS011;13866;50.748;12.630;2023-04-03T09:21:19;3.93;;;3.63;;
26106;SDS011;13866;50.748;12.630;2023-04-03T09:23:38;4.20;;;3.90;;
26106;SDS011;13866;50.748;12.630;2023-04-03T09:26:44;3.37;;;3.07;;
26106;SDS011;13866;50.748;12.630;2023-04-03T09:29:21;3.80;;;3.53;;
26106;SDS011;13866;50.748;12.630;2023-04-03T09:31:48;4.13;;;3.60;;
26106;SDS011;13866;50.748;12.630;2023-04-03T09:34:22;3.43;;;2.90;;
26106;SDS011;13866;50.748;12.630;2023-04-03T09:36:49;3.60;;;3.10;;
26106;SDS011;13866;50.748;12.630;2023-04-03T09:39:20;2.93;;;2.93;;
26106;SDS011;13866;50.748;12.630;2023-04-03T09:42:01;3.33;;;3.23;;
26106;SDS011;13866;50.748;12.630;2023-04-03T09:44:42;4.00;;;3.60;;
26106;SDS011;13866;50.748;12.630;2023-04-03T09:49:50;4.03;;;3.93;;
26106;SDS011;13866;50.748;12.630;2023-04-03T09:52:33;3.50;;;3.50;;
26106;SDS011;13866;50.748;12.630;2023-04-03T09:55:05;4.53;;;3.33;;
26106;SDS011;13866;50.748;12.630;2023-04-03T09:57:42;3.23;;;3.07;;
26106;SDS011;13866;50.748;12.630;2023-04-03T10:00:19;3.43;;;3.33;;
26106;SDS011;13866;50.748;12.630;2023-04-03T10:02:49;2.60;;;2.60;;
26106;SDS011;13866;50.748;12.630;2023-04-03T10:08:09;3.27;;;2.87;;
26106;SDS011;13866;50.748;12.630;2023-04-03T10:10:45;2.83;;;2.73;;
26106;SDS011;13866;50.748;12.630;2023-04-03T10:13:13;2.97;;;2.77;;
26106;SDS011;13866;50.748;12.630;2023-04-03T10:15:56;3.33;;;3.23;;
26106;SDS011;13866;50.748;12.630;2023-04-03T10:18:45;2.90;;;2.70;;
26106;SDS011;13866;50.748;12.630;2023-04-03T10:21:29;2.80;;;2.57;;
26106;SDS011;13866;50.748;12.630;2023-04-03T10:26:58;2.80;;;2.50;;
26106;SDS011;13866;50.748;12.630;2023-04-03T10:29:41;3.13;;;2.60;;
26106;SDS011;13866;50.748;12.630;2023-04-03T10:32:18;2.50;;;2.50;;
26106;SDS011;13866;50.748;12.630;2023-04-03T10:43:02;4.90;;;2.13;;
26106;SDS011;13866;50.748;12.630;2023-04-03T10:45:41;2.03;;;2.00;;
26106;SDS011;13866;50.748;12.630;2023-04-03T10:48:31;6.70;;;2.53;;
26106;SDS011;13866;50.748;12.630;2023-04-03T10:56:40;1.93;;;1.87;;
26106;SDS011;13866;50.748;12.630;2023-04-03T10:59:21;5.83;;;2.70;;
26106;SDS011;13866;50.748;12.630;2023-04-03T11:01:49;1.70;;;1.70;;
26106;SDS011;13866;50.748;12.630;2023-04-03T11:04:19;2.77;;;2.67;;
26106;SDS011;13866;50.748;12.630;2023-04-03T11:06:58;2.30;;;2.30;;
26106;SDS011;13866;50.748;12.630;2023-04-03T11:09:27;2.97;;;2.63;;
26106;SDS011;13866;50.748;12.630;2023-04-03T11:12:09;2.00;;;1.90;;
26106;SDS011;13866;50.748;12.630;2023-04-03T11:15:01;2.43;;;2.33;;
26106;SDS011;13866;50.748;12.630;2023-04-03T11:17:35;5.70;;;2.67;;
26106;SDS011;13866;50.748;12.630;2023-04-03T11:23:13;2.27;;;2.10;;
26106;SDS011;13866;50.748;12.630;2023-04-03T11:25:51;1.97;;;1.87;;
26106;SDS011;13866;50.748;12.630;2023-04-03T11:28:19;3.07;;;2.97;;
26106;SDS011;13866;50.748;12.630;2023-04-03T11:36:50;1.80;;;1.70;;
26106;SDS011;13866;50.748;12.630;2023-04-03T11:39:30;2.23;;;2.23;;
26106;SDS011;13866;50.748;12.630;2023-04-03T11:47:55;2.33;;;1.90;;
26106;SDS011;13866;50.748;12.630;2023-04-03T12:19:03;1.97;;;1.97;;
26106;SDS011;13866;50.748;12.630;2023-04-03T12:26:46;1.90;;;1.80;;
26106;SDS011;13866;50.748;12.630;2023-04-03T12:34:41;1.70;;;1.70;;
26106;SDS011;13866;50.748;12.630;2023-04-03T12:37:50;1.80;;;1.80;;
26106;SDS011;13866;50.748;12.630;2023-04-03T12:46:04;6.13;;;1.83;;
26106;SDS011;13866;50.748;12.630;2023-04-03T12:48:38;1.30;;;1.30;;
26106;SDS011;13866;50.748;12.630;2023-04-03T12:51:16;2.57;;;2.40;;
26106;SDS011;13866;50.748;12.630;2023-04-03T12:53:46;2.33;;;2.13;;
26106;SDS011;13866;50.748;12.630;2023-04-03T12:56:27;4.13;;;1.40;;
26106;SDS011;13866;50.748;12.630;2023-04-03T12:58:55;2.23;;;2.00;;
26106;SDS011;13866;50.748;12.630;2023-04-03T13:01:37;2.33;;;2.07;;
26106;SDS011;13866;50.748;12.630;2023-04-03T13:04:02;1.60;;;1.60;;
26106;SDS011;13866;50.748;12.630;2023-04-03T13:06:36;1.67;;;1.57;;
26106;SDS011;13866;50.748;12.630;2023-04-03T13:09:05;2.73;;;2.60;;
26106;SDS011;13866;50.748;12.630;2023-04-03T13:11:43;1.70;;;1.60;;
26106;SDS011;13866;50.748;12.630;2023-04-03T13:14:49;1.80;;;1.80;;
26106;SDS011;13866;50.748;12.630;2023-04-03T13:17:15;2.73;;;1.97;;
26106;SDS011;13866;50.748;12.630;2023-04-03T13:19:41;2.13;;;2.03;;
26106;SDS011;13866;50.748;12.630;2023-04-03T13:22:23;2.50;;;1.30;;
26106;SDS011;13866;50.748;12.630;2023-04-03T13:25:04;5.97;;;2.23;;
26106;SDS011;13866;50.748;12.630;2023-04-03T13:27:32;2.23;;;2.10;;
26106;SDS011;13866;50.748;12.630;2023-04-03T13:29:58;3.03;;;1.73;;
26106;SDS011;13866;50.748;12.630;2023-04-03T13:32:30;1.80;;;1.80;;
26106;SDS011;13866;50.748;12.630;2023-04-03T13:34:56;2.23;;;2.13;;
26106;SDS011;13866;50.748;12.630;2023-04-03T13:37:30;1.80;;;1.80;;
26106;SDS011;13866;50.748;12.630;2023-04-03T13:39:58;1.90;;;1.80;;
26106;SDS011;13866;50.748;12.630;2023-04-03T13:42:34;1.80;;;1.70;;
26106;SDS011;13866;50.748;12.630;2023-04-03T13:47:49;1.63;;;1.53;;
26106;SDS011;13866;50.748;12.630;2023-04-03T13:50:19;2.37;;;1.80;;
26106;SDS011;13866;50.748;12.630;2023-04-03T13:52:49;3.73;;;1.60;;
26106;SDS011;13866;50.748;12.630;2023-04-03T13:55:18;1.40;;;1.40;;
26106;SDS011;13866;50.748;12.630;2023-04-03T13:57:55;2.37;;;2.23;;
26106;SDS011;13866;50.748;12.630;2023-04-03T14:00:31;2.10;;;1.97;;
26106;SDS011;13866;50.748;12.630;2023-04-03T14:03:13;2.00;;;1.90;;
26106;SDS011;13866;50.748;12.630;2023-04-03T14:05:47;3.60;;;1.97;;
26106;SDS011;13866;50.748;12.630;2023-04-03T14:08:13;1.90;;;1.73;;
26106;SDS011;13866;50.748;12.630;2023-04-03T14:10:39;3.50;;;2.10;;
26106;SDS011;13866;50.748;12.630;2023-04-03T14:13:05;1.30;;;1.30;;
26106;SDS011;13866;50.748;12.630;2023-04-03T14:15:31;2.30;;;2.30;;
26106;SDS011;13866;50.748;12.630;2023-04-03T14:17:57;2.43;;;2.33;;
26106;SDS011;13866;50.748;12.630;2023-04-03T14:20:24;2.20;;;2.10;;
26106;SDS011;13866;50.748;12.630;2023-04-03T14:22:51;2.43;;;2.23;;
26106;SDS011;13866;50.748;12.630;2023-04-03T14:25:19;5.10;;;2.30;;
26106;SDS011;13866;50.748;12.630;2023-04-03T14:27:48;2.43;;;2.20;;
26106;SDS011;13866;50.748;12.630;2023-04-03T14:30:17;1.40;;;1.40;;
26106;SDS011;13866;50.748;12.630;2023-04-03T14:32:45;2.00;;;1.90;;
26106;SDS011;13866;50.748;12.630;2023-04-03T14:35:11;4.53;;;2.00;;
26106;SDS011;13866;50.748;12.630;2023-04-03T14:37:37;2.93;;;1.70;;
26106;SDS011;13866;50.748;12.630;2023-04-03T14:40:03;2.20;;;2.10;;
26106;SDS011;13866;50.748;12.630;2023-04-03T14:42:32;2.07;;;1.97;;
26106;SDS011;13866;50.748;12.630;2023-04-03T14:45:00;1.87;;;1.77;;
26106;SDS011;13866;50.748;12.630;2023-04-03T14:47:28;1.80;;;1.70;;
26106;SDS011;13866;50.748;12.630;2023-04-03T14:49:55;2.10;;;1.90;;
26106;SDS011;13866;50.748;12.630;2023-04-03T14:52:22;6.03;;;1.80;;
26106;SDS011;13866;50.748;12.630;2023-04-03T14:54:53;2.80;;;2.60;;
26106;SDS011;13866;50.748;12.630;2023-04-03T14:57:19;2.63;;;2.43;;
26106;SDS011;13866;50.748;12.630;2023-04-03T14:59:47;2.10;;;2.00;;
26106;SDS011;13866;50.748;12.630;2023-04-03T15:02:24;2.23;;;2.23;;
26106;SDS011;13866;50.748;12.630;2023-04-03T15:04:54;2.73;;;2.60;;
26106;SDS011;13866;50.748;12.630;2023-04-03T15:07:20;2.70;;;2.70;;
26106;SDS011;13866;50.748;12.630;2023-04-03T15:09:47;2.47;;;2.37;;
26106;SDS011;13866;50.748;12.630;2023-04-03T15:12:13;2.10;;;2.10;;
26106;SDS011;13866;50.748;12.630;2023-04-03T15:14:38;2.37;;;2.17;;
26106;SDS011;13866;50.748;12.630;2023-04-03T15:17:04;2.00;;;1.90;;
26106;SDS011;13866;50.748;12.630;2023-04-03T15:19:36;1.90;;;1.80;;
26106;SDS011;13866;50.748;12.630;2023-04-03T15:22:03;2.70;;;2.60;;
26106;SDS011;13866;50.748;12.630;2023-04-03T15:24:28;1.93;;;1.93;;
26106;SDS011;13866;50.748;12.630;2023-04-03T15:26:54;2.40;;;1.90;;
26106;SDS011;13866;50.748;12.630;2023-04-03T15:29:19;1.90;;;1.90;;
26106;SDS011;13866;50.748;12.630;2023-04-03T15:31:45;2.30;;;2.30;;
26106;SDS011;13866;50.748;12.630;2023-04-03T15:34:10;2.23;;;2.13;;
26106;SDS011;13866;50.748;12.630;2023-04-03T15:36:36;2.67;;;2.37;;
26106;SDS011;13866;50.748;12.630;2023-04-03T15:39:01;2.30;;;2.10;;
26106;SDS011;13866;50.748;12.630;2023-04-03T15:41:27;2.30;;;2.07;;
26106;SDS011;13866;50.748;12.630;2023-04-03T15:43:52;2.00;;;2.00;;
26106;SDS011;13866;50.748;12.630;2023-04-03T15:46:17;2.50;;;2.40;;
26106;SDS011;13866;50.748;12.630;2023-04-03T15:48:43;3.70;;;2.00;;
26106;SDS011;13866;50.748;12.630;2023-04-03T15:51:09;2.10;;;2.10;;
26106;SDS011;13866;50.748;12.630;2023-04-03T15:53:35;2.03;;;1.93;;
26106;SDS011;13866;50.748;12.630;2023-04-03T15:56:01;2.60;;;2.40;;
26106;SDS011;13866;50.748;12.630;2023-04-03T15:58:26;2.20;;;2.20;;
26106;SDS011;13866;50.748;12.630;2023-04-03T16:00:52;2.33;;;2.27;;
26106;SDS011;13866;50.748;12.630;2023-04-03T16:03:18;1.80;;;1.80;;
26106;SDS011;13866;50.748;12.630;2023-04-03T16:05:45;3.20;;;2.43;;
26106;SDS011;13866;50.748;12.630;2023-04-03T16:08:11;3.00;;;2.80;;
26106;SDS011;13866;50.748;12.630;2023-04-03T16:10:37;2.40;;;2.30;;
26106;SDS011;13866;50.748;12.630;2023-04-03T16:13:04;4.20;;;4.00;;
26106;SDS011;13866;50.748;12.630;2023-04-03T16:15:30;7.03;;;3.00;;
26106;SDS011;13866;50.748;12.630;2023-04-03T16:17:57;2.20;;;2.20;;
26106;SDS011;13866;50.748;12.630;2023-04-03T16:20:24;2.07;;;2.07;;
26106;SDS011;13866;50.748;12.630;2023-04-03T16:22:50;2.60;;;2.50;;
26106;SDS011;13866;50.748;12.630;2023-04-03T16:25:15;2.57;;;2.40;;